Time;durP1;ratioP1;P1;durP2;ratioP2;P2;SDS_P1;SDS_P2;PMS_P1;PMS_P2;Temp;Humidity;BMP_temperature;BMP_pressure;BME280_temperature;BME280_humidity;BME280_pressure;Samples;Min_cycle;Max_cycle;Signal;HPM_P1;HPM_P2
2021/05/12 00:01:35;;;;;;;5.15;3.00;;;;;;;18.90;47.07;98884.50;5078674;28;20063;-68
2021/05/12 00:04:00;;;;;;;4.70;2.97;;;;;;;18.94;47.09;98877.50;5076124;28;40781;-68
2021/05/12 00:06:26;;;;;;;6.63;2.90;;;;;;;19.00;47.26;98872.13;5076474;28;35096;-68
2021/05/12 00:08:51;;;;;;;4.95;3.28;;;;;;;18.92;47.14;98878.84;5077322;28;20074;-68
2021/05/12 00:11:16;;;;;;;5.38;2.95;;;;;;;18.98;47.16;98883.19;5074878;28;34417;-68
2021/05/12 00:13:42;;;;;;;4.13;2.88;;;;;;;18.94;47.24;98882.91;5076689;28;24286;-68
2021/05/12 00:16:07;;;;;;;4.63;2.78;;;;;;;18.91;47.39;98878.00;5076619;28;20025;-68
2021/05/12 00:18:38;;;;;;;4.32;2.78;;;;;;;18.93;47.34;98883.97;5076823;28;20485;-68
2021/05/12 00:21:05;;;;;;;6.43;2.92;;;;;;;18.79;47.47;98880.03;5076621;28;20067;-68
2021/05/12 00:23:41;;;;;;;5.57;2.80;;;;;;;18.73;47.73;98881.88;5074584;28;20037;-69
2021/05/12 00:26:07;;;;;;;7.03;2.80;;;;;;;18.60;47.79;98877.72;5075303;28;20033;-67
2021/05/12 00:28:32;;;;;;;4.63;3.00;;;;;;;18.51;48.06;98878.44;5087177;28;27212;-67
2021/05/12 00:30:58;;;;;;;5.00;2.80;;;;;;;18.44;48.35;98878.63;5096596;28;26998;-67
2021/05/12 00:33:23;;;;;;;5.78;3.40;;;;;;;18.35;48.59;98880.16;5096312;28;35598;-67
2021/05/12 00:35:48;;;;;;;5.38;3.15;;;;;;;18.25;48.46;98886.25;5096173;28;40990;-67
2021/05/12 00:38:14;;;;;;;4.15;3.08;;;;;;;18.13;48.75;98883.69;5095032;28;36692;-66
2021/05/12 00:40:39;;;;;;;4.25;3.00;;;;;;;18.04;48.66;98882.50;5095993;28;41613;-68
2021/05/12 00:43:04;;;;;;;8.75;3.45;;;;;;;17.95;48.93;98878.59;5096075;28;36364;-68
2021/05/12 00:45:30;;;;;;;4.60;2.72;;;;;;;17.90;49.34;98884.72;5095701;28;38986;-69
2021/05/12 00:47:55;;;;;;;5.18;3.00;;;;;;;17.88;49.55;98892.25;5095533;28;36768;-68
2021/05/12 00:50:22;;;;;;;7.57;3.00;;;;;;;17.93;49.57;98879.69;5096018;28;36965;-66
2021/05/12 00:52:47;;;;;;;5.20;3.58;;;;;;;17.92;49.71;98882.63;5096656;28;20480;-67
2021/05/12 00:55:13;;;;;;;4.50;2.97;;;;;;;17.88;49.88;98876.91;5095279;28;20027;-67
2021/05/12 00:57:38;;;;;;;5.40;2.95;;;;;;;17.84;50.50;98885.75;5096692;28;20052;-67
2021/05/12 01:00:08;;;;;;;4.50;3.05;;;;;;;17.75;50.34;98880.75;5094677;28;39336;-68
2021/05/12 01:02:33;;;;;;;4.30;3.10;;;;;;;17.70;50.08;98886.09;5095307;28;20047;-68
2021/05/12 01:04:59;;;;;;;6.10;3.15;;;;;;;17.69;50.57;98894.44;5096516;28;20028;-69
2021/05/12 01:07:25;;;;;;;5.30;3.13;;;;;;;17.61;50.44;98902.94;5096697;28;20024;-70
2021/05/12 01:09:50;;;;;;;4.28;3.15;;;;;;;17.55;50.96;98900.16;5095911;28;31367;-69
2021/05/12 01:12:15;;;;;;;4.18;2.90;;;;;;;17.51;51.12;98901.72;5095760;28;32533;-68
2021/05/12 01:14:41;;;;;;;5.75;2.88;;;;;;;17.52;51.20;98905.22;5111351;27;33360;-68
2021/05/12 01:17:06;;;;;;;5.10;3.42;;;;;;;17.48;51.02;98909.47;5097065;28;35162;-68
2021/05/12 01:19:34;;;;;;;5.97;2.80;;;;;;;17.41;50.96;98894.31;5096260;28;20103;-68
2021/05/12 01:21:59;;;;;;;5.05;2.80;;;;;;;17.35;51.31;98895.28;5096156;27;20029;-68
2021/05/12 01:24:25;;;;;;;4.60;3.00;;;;;;;17.31;51.69;98894.16;5095204;28;33615;-68
2021/05/12 01:26:50;;;;;;;4.97;3.40;;;;;;;17.25;51.52;98895.97;5096002;28;24681;-70
2021/05/12 01:29:15;;;;;;;5.25;3.50;;;;;;;17.16;51.71;98902.81;5096055;28;20035;-70
2021/05/12 01:31:42;;;;;;;5.20;3.10;;;;;;;17.07;51.66;98894.34;5095625;28;35005;-69
2021/05/12 01:34:12;;;;;;;7.20;3.20;;;;;;;16.99;51.46;98896.59;5111154;27;20028;-70
2021/05/12 01:36:37;;;;;;;4.93;3.27;;;;;;;16.84;51.77;98892.59;5095995;27;20816;-69
2021/05/12 01:39:04;;;;;;;3.47;2.53;;;;;;;16.73;51.77;98896.13;5094926;28;20036;-69
2021/05/12 01:41:29;;;;;;;6.03;3.60;;;;;;;16.60;51.81;98894.56;5094676;28;20112;-69
2021/05/12 01:43:55;;;;;;;6.00;3.63;;;;;;;16.48;52.63;98894.63;5094191;28;29116;-72
2021/05/12 01:46:20;;;;;;;6.72;3.45;;;;;;;16.39;52.58;98888.81;5094987;28;20473;-69
2021/05/12 01:48:46;;;;;;;4.72;3.35;;;;;;;16.34;52.64;98890.63;5094052;28;33481;-69
2021/05/12 01:51:12;;;;;;;5.65;3.33;;;;;;;16.27;52.90;98889.94;5095522;27;20119;-68
2021/05/12 01:53:37;;;;;;;5.70;3.15;;;;;;;16.22;53.21;98885.28;5095849;28;20029;-69
2021/05/12 01:56:03;;;;;;;5.20;3.33;;;;;;;16.17;53.52;98891.38;5095677;28;20078;-69
2021/05/12 01:58:29;;;;;;;7.15;3.25;;;;;;;16.09;53.29;98899.81;5094683;28;20024;-68
2021/05/12 02:00:54;;;;;;;6.30;3.85;;;;;;;16.03;53.92;98898.06;5095776;28;20055;-72
2021/05/12 02:03:20;;;;;;;6.47;3.67;;;;;;;15.98;53.72;98897.94;5094363;28;20162;-68
2021/05/12 02:05:46;;;;;;;5.78;4.13;;;;;;;15.93;54.13;98889.81;5111261;28;20399;-70
2021/05/12 02:08:14;;;;;;;7.40;3.80;;;;;;;15.92;54.50;98893.53;5095544;28;20869;-70
2021/05/12 02:10:41;;;;;;;7.53;3.90;;;;;;;15.92;54.59;98894.34;5095455;28;20779;-69
2021/05/12 02:13:07;;;;;;;5.68;3.72;;;;;;;15.93;54.53;98895.19;5094051;28;20020;-70
2021/05/12 02:15:32;;;;;;;5.43;3.90;;;;;;;15.95;54.86;98893.06;5094449;28;20025;-67
2021/05/12 02:17:57;;;;;;;5.80;3.35;;;;;;;15.98;55.54;98897.94;5094673;28;34420;-68
2021/05/12 02:20:29;;;;;;;5.15;3.42;;;;;;;15.95;55.38;98903.81;5089882;28;20040;-67
2021/05/12 02:22:58;;;;;;;8.15;3.63;;;;;;;15.89;55.53;98890.25;5080310;28;20056;-68
2021/05/12 02:25:24;;;;;;;8.05;3.28;;;;;;;15.90;56.10;98897.28;5074724;28;20037;-68
2021/05/12 02:27:50;;;;;;;5.15;3.60;;;;;;;15.86;55.75;98885.38;5073700;28;20025;-68
2021/05/12 02:30:15;;;;;;;5.10;4.10;;;;;;;15.79;56.00;98887.34;5075075;28;20030;-68
2021/05/12 02:32:40;;;;;;;6.32;3.75;;;;;;;15.71;56.27;98893.88;5073520;28;21180;-68
2021/05/12 02:35:07;;;;;;;5.05;3.90;;;;;;;15.64;55.82;98903.13;5074161;28;32802;-67
2021/05/12 02:37:33;;;;;;;4.82;3.70;;;;;;;15.56;55.91;98902.41;5074726;28;20064;-66
2021/05/12 02:39:58;;;;;;;6.22;3.65;;;;;;;15.50;56.32;98902.53;5072969;28;33102;-66
2021/05/12 02:42:23;;;;;;;6.35;3.45;;;;;;;15.46;56.61;98885.28;5072802;28;40502;-65
2021/05/12 02:44:49;;;;;;;5.18;4.05;;;;;;;15.42;56.53;98898.34;5074879;28;20041;-65
2021/05/12 02:47:14;;;;;;;5.68;4.05;;;;;;;15.39;56.90;98898.81;5076584;28;37911;-66
2021/05/12 02:49:40;;;;;;;5.78;3.80;;;;;;;15.38;57.13;98900.69;5077527;28;37209;-67
2021/05/12 02:52:05;;;;;;;5.18;3.80;;;;;;;15.37;57.11;98903.59;5077850;28;35340;-67
2021/05/12 02:54:31;;;;;;;6.18;4.18;;;;;;;15.33;57.00;98903.25;5078462;28;20025;-67
2021/05/12 02:56:57;;;;;;;6.97;4.22;;;;;;;15.26;57.21;98901.75;5078515;28;20428;-66
2021/05/12 02:59:22;;;;;;;8.50;4.55;;;;;;;15.16;57.68;98907.66;5077239;28;29641;-67
2021/05/12 03:01:47;;;;;;;7.35;4.00;;;;;;;15.07;57.58;98912.56;5078274;28;20048;-67
2021/05/12 03:04:13;;;;;;;8.07;4.13;;;;;;;15.00;57.35;98909.16;5077307;28;35673;-65
2021/05/12 03:06:38;;;;;;;6.75;4.00;;;;;;;14.96;57.58;98908.78;5077980;28;20064;-67
2021/05/12 03:09:05;;;;;;;6.10;3.83;;;;;;;14.93;57.69;98916.50;5076249;28;20051;-67
2021/05/12 03:11:30;;;;;;;7.10;3.80;;;;;;;14.88;57.95;98933.25;5077881;28;20029;-65
2021/05/12 03:13:56;;;;;;;8.38;4.25;;;;;;;14.88;58.17;98947.50;5076883;28;35608;-66
2021/05/12 03:16:21;;;;;;;7.82;4.55;;;;;;;14.93;58.40;98948.69;5077561;28;20090;-66
2021/05/12 03:18:47;;;;;;;7.60;4.00;;;;;;;14.93;58.49;98944.13;5076958;28;39882;-67
2021/05/12 03:21:12;;;;;;;8.05;4.00;;;;;;;14.96;58.72;98945.53;5075890;28;29393;-68
2021/05/12 03:23:37;;;;;;;5.90;4.03;;;;;;;14.97;58.87;98950.66;5076776;28;33649;-67
2021/05/12 03:26:03;;;;;;;5.90;3.80;;;;;;;15.00;58.89;98952.06;5077268;28;27888;-65
2021/05/12 03:28:28;;;;;;;5.05;3.88;;;;;;;15.04;59.07;98955.94;5077889;28;20029;-65
2021/05/12 03:30:54;;;;;;;11.50;4.43;;;;;;;15.06;58.81;98961.88;5077861;28;20025;-67
2021/05/12 03:33:19;;;;;;;11.75;4.35;;;;;;;15.09;59.07;98958.75;5075716;28;30901;-67
2021/05/12 03:35:44;;;;;;;13.23;5.13;;;;;;;15.13;59.22;98959.91;5070516;27;20103;-68
2021/05/12 03:38:10;;;;;;;8.85;4.63;;;;;;;15.15;59.30;98962.38;5084976;27;20040;-69
2021/05/12 03:40:36;;;;;;;17.55;5.80;;;;;;;15.16;59.21;98958.63;5094197;28;20032;-68
2021/05/12 03:43:01;;;;;;;10.38;4.90;;;;;;;15.18;59.66;98968.06;5096691;28;20472;-67
2021/05/12 03:45:27;;;;;;;11.75;5.18;;;;;;;15.25;59.64;98964.47;5096901;28;29341;-66
2021/05/12 03:47:53;;;;;;;11.57;5.07;;;;;;;15.29;59.77;98965.66;5092341;28;20075;-66
2021/05/12 03:50:19;;;;;;;9.13;5.03;;;;;;;15.34;59.86;98963.09;5077209;28;20022;-68
2021/05/12 03:52:44;;;;;;;7.10;5.55;;;;;;;15.42;60.11;98962.75;5076102;28;20035;-67
2021/05/12 03:55:10;;;;;;;8.68;5.97;;;;;;;15.52;60.23;98959.50;5077203;28;20059;-64
2021/05/12 03:57:35;;;;;;;7.55;6.50;;;;;;;15.62;60.69;98965.09;5077498;27;20106;-65
2021/05/12 04:00:02;;;;;;;13.50;6.63;;;;;;;15.72;60.46;98964.53;5068474;28;26068;-65
2021/05/12 04:02:27;;;;;;;8.93;7.45;;;;;;;15.81;60.67;98968.50;5016333;27;20876;-65
2021/05/12 04:04:52;;;;;;;9.10;7.68;;;;;;;15.93;61.08;98965.00;5109210;27;21541;-67
2021/05/12 04:07:18;;;;;;;15.98;8.55;;;;;;;16.02;61.05;98963.56;5096925;28;34762;-66
2021/05/12 04:09:43;;;;;;;10.93;8.50;;;;;;;16.11;61.43;98972.91;5095228;27;20515;-71
2021/05/12 04:12:08;;;;;;;19.48;9.50;;;;;;;16.19;61.36;98975.22;5096674;28;30264;-70
2021/05/12 04:14:34;;;;;;;14.88;8.55;;;;;;;16.28;61.49;98969.47;5096598;28;20028;-69
2021/05/12 04:16:59;;;;;;;10.65;8.45;;;;;;;16.33;61.82;98966.91;5097150;28;20028;-71
2021/05/12 04:19:25;;;;;;;9.70;8.75;;;;;;;16.39;62.22;98974.84;5098271;28;20029;-72
2021/05/12 04:21:50;;;;;;;10.25;8.70;;;;;;;16.45;62.00;98977.63;5096024;28;20029;-73
2021/05/12 04:24:16;;;;;;;13.10;9.57;;;;;;;16.48;62.26;98971.78;5085404;28;20414;-69
2021/05/12 04:26:41;;;;;;;12.95;9.57;;;;;;;16.53;62.79;98970.00;5076759;28;20157;-70
2021/05/12 04:29:06;;;;;;;11.02;9.85;;;;;;;16.57;62.80;98976.53;5076190;28;26760;-70
2021/05/12 04:31:33;;;;;;;15.20;11.43;;;;;;;16.62;62.63;98977.69;5057156;28;25529;-69
2021/05/12 04:33:58;;;;;;;12.43;9.60;;;;;;;16.64;62.93;98980.97;5074191;28;20037;-71
2021/05/12 04:36:23;;;;;;;12.65;10.15;;;;;;;16.67;63.27;98981.28;5083176;28;25634;-71
2021/05/12 04:38:50;;;;;;;12.48;10.68;;;;;;;16.69;63.18;98973.81;5087615;28;35983;-68
2021/05/12 04:41:17;;;;;;;13.95;11.13;;;;;;;16.71;63.72;98971.66;5087586;28;20040;-68
2021/05/12 04:43:43;;;;;;;11.75;10.52;;;;;;;16.75;63.95;98983.59;5085174;28;20033;-70
2021/05/12 04:46:08;;;;;;;12.35;10.82;;;;;;;16.79;63.55;98983.13;5085530;28;29097;-71
2021/05/12 04:48:33;;;;;;;14.02;11.27;;;;;;;16.83;64.13;98986.97;5086456;28;20077;-67
2021/05/12 04:50:59;;;;;;;12.05;10.40;;;;;;;16.89;64.11;98983.31;5094401;28;36834;-71
2021/05/12 04:53:24;;;;;;;13.60;11.68;;;;;;;16.97;64.51;98991.00;5094773;28;20447;-70
2021/05/12 04:55:50;;;;;;;13.50;11.88;;;;;;;17.05;64.59;98982.53;5096056;28;20032;-71
2021/05/12 04:58:15;;;;;;;14.32;11.02;;;;;;;17.11;64.68;98980.75;5096414;28;20092;-69
2021/05/12 05:00:41;;;;;;;12.30;10.45;;;;;;;17.23;65.31;98984.19;5096329;28;20032;-69
2021/05/12 05:03:07;;;;;;;13.18;10.10;;;;;;;17.31;65.06;98990.25;5093685;28;20025;-69
2021/05/12 05:05:33;;;;;;;12.30;10.30;;;;;;;17.32;65.18;98994.53;5096119;28;20037;-69
2021/05/12 05:07:58;;;;;;;13.25;11.30;;;;;;;17.36;65.38;99003.75;5096037;28;20036;-70
2021/05/12 05:10:23;;;;;;;12.60;11.40;;;;;;;17.41;65.07;99003.84;5081486;28;24031;-69
2021/05/12 05:12:49;;;;;;;14.70;11.55;;;;;;;17.48;65.44;98996.44;5083391;28;20074;-75
2021/05/12 05:15:14;;;;;;;12.13;10.93;;;;;;;17.53;65.48;99009.16;5095612;28;20033;-72
2021/05/12 05:17:41;;;;;;;13.95;11.38;;;;;;;17.60;65.58;98996.34;5090230;28;20041;-73
2021/05/12 05:20:08;;;;;;;12.23;10.18;;;;;;;17.69;65.86;99002.97;5080777;28;20040;-77
2021/05/12 05:22:35;;;;;;;12.48;10.60;;;;;;;17.75;65.75;99007.34;5077669;28;20127;-72
2021/05/12 05:25:00;;;;;;;13.18;9.77;;;;;;;17.82;65.96;99007.19;5093644;28;20072;-77
2021/05/12 05:27:25;;;;;;;15.05;10.73;;;;;;;17.88;66.03;99006.22;5095185;28;40458;-71
2021/05/12 05:29:51;;;;;;;12.18;9.85;;;;;;;17.93;65.93;99003.63;5095095;28;20028;-68
2021/05/12 05:32:16;;;;;;;12.05;10.23;;;;;;;17.99;65.88;99007.19;5091338;28;20055;-68
2021/05/12 05:34:42;;;;;;;12.98;10.23;;;;;;;18.04;66.00;99009.13;5093750;28;20043;-70
2021/05/12 05:37:07;;;;;;;10.90;9.80;;;;;;;18.11;65.87;99009.78;5095028;28;20075;-68
2021/05/12 05:39:36;;;;;;;13.77;9.18;;;;;;;18.21;66.30;99009.91;5094383;28;28994;-69
2021/05/12 05:42:08;;;;;;;11.45;10.23;;;;;;;18.36;66.32;99000.41;5094792;28;20102;-71
2021/05/12 05:44:34;;;;;;;11.50;9.27;;;;;;;18.48;66.60;99009.19;5094651;28;20123;-72
2021/05/12 05:47:00;;;;;;;14.63;9.90;;;;;;;18.65;66.53;99008.31;5094147;28;20024;-71
2021/05/12 05:49:25;;;;;;;22.73;16.92;;;;;;;18.82;66.89;99013.59;5093299;28;20845;-68
2021/05/12 05:51:52;;;;;;;14.70;11.20;;;;;;;18.96;66.28;99008.66;5094551;28;34905;-67
2021/05/12 05:54:17;;;;;;;11.27;9.90;;;;;;;19.03;66.40;98999.28;5093723;28;20090;-70
2021/05/12 05:56:43;;;;;;;11.30;9.80;;;;;;;19.09;65.88;98997.44;5094307;28;20074;-70
2021/05/12 05:59:08;;;;;;;10.90;9.40;;;;;;;19.11;65.53;98998.03;5076964;28;20024;-74
2021/05/12 06:01:34;;;;;;;11.35;9.35;;;;;;;19.16;65.73;99006.13;5091027;28;20029;-75
2021/05/12 06:03:59;;;;;;;12.45;9.55;;;;;;;19.22;65.95;99002.44;5075334;28;20033;-74
2021/05/12 06:06:25;;;;;;;10.93;8.30;;;;;;;19.38;66.09;99016.91;5074577;28;37083;-72
2021/05/12 06:08:50;;;;;;;14.02;9.77;;;;;;;19.58;66.32;99016.22;5073225;28;37911;-76
2021/05/12 06:11:15;;;;;;;12.50;8.88;;;;;;;19.69;65.48;99010.91;5073684;28;20031;-74
2021/05/12 06:13:41;;;;;;;9.68;8.68;;;;;;;19.78;65.57;99012.88;5074708;28;38055;-75
2021/05/12 06:16:06;;;;;;;10.73;9.10;;;;;;;19.92;65.75;99015.94;5073857;28;39539;-75
2021/05/12 06:18:31;;;;;;;15.48;7.72;;;;;;;20.07;65.88;99017.94;5074589;28;20025;-72
2021/05/12 06:20:57;;;;;;;11.63;8.43;;;;;;;20.24;65.62;99017.78;5074825;28;20472;-74
2021/05/12 06:23:22;;;;;;;10.93;7.97;;;;;;;20.39;65.42;99019.72;5073239;28;20030;-72
2021/05/12 06:25:50;;;;;;;11.55;7.93;;;;;;;20.53;64.93;99024.63;5073417;28;36854;-74
2021/05/12 06:28:16;;;;;;;8.30;7.50;;;;;;;20.62;64.91;99018.44;5074817;28;20029;-72
2021/05/12 06:30:48;;;;;;;10.23;7.72;;;;;;;20.76;64.69;99018.00;5074154;28;20035;-71
2021/05/12 06:33:13;;;;;;;11.45;7.88;;;;;;;20.91;64.62;99015.34;5081707;28;20067;-71
2021/05/12 06:35:39;;;;;;;12.65;8.00;;;;;;;21.07;64.38;99016.16;5073876;28;41422;-69
2021/05/12 06:38:04;;;;;;;11.48;7.65;;;;;;;21.15;63.57;99012.13;5075134;28;20064;-70
2021/05/12 06:40:29;;;;;;;12.48;8.00;;;;;;;21.23;63.39;99016.22;5074290;28;32373;-70
2021/05/12 06:42:55;;;;;;;7.88;7.07;;;;;;;21.33;63.57;99012.69;5072973;28;20040;-69
2021/05/12 06:45:20;;;;;;;15.88;14.20;;;;;;;21.47;63.37;99017.31;5073185;28;37088;-70
2021/05/12 06:47:53;;;;;;;20.25;17.50;;;;;;;21.64;63.44;99017.03;5072776;28;20059;-69
2021/05/12 06:50:19;;;;;;;11.65;7.75;;;;;;;21.84;63.11;99017.28;5074329;28;20025;-72
2021/05/12 06:52:44;;;;;;;8.82;6.97;;;;;;;21.90;61.69;99017.00;5073490;28;26842;-73
2021/05/12 06:55:10;;;;;;;9.55;6.93;;;;;;;21.97;62.21;99017.53;5074246;28;20021;-72
2021/05/12 06:57:35;;;;;;;13.10;8.65;;;;;;;22.07;61.36;99013.19;5073618;28;20025;-70
2021/05/12 07:00:00;;;;;;;10.73;7.05;;;;;;;22.14;61.54;99014.53;5072426;28;29532;-70
2021/05/12 07:02:26;;;;;;;11.55;7.15;;;;;;;22.34;61.57;99014.75;5073511;28;31944;-68
2021/05/12 07:04:51;;;;;;;8.35;6.28;;;;;;;22.47;61.22;99016.88;5072857;28;20466;-70
2021/05/12 07:07:17;;;;;;;7.13;6.40;;;;;;;22.59;60.83;99017.34;5072497;28;24423;-71
2021/05/12 07:09:42;;;;;;;9.15;6.57;;;;;;;22.77;60.64;99006.97;5073576;28;30938;-71
2021/05/12 07:12:08;;;;;;;11.82;6.68;;;;;;;22.92;60.20;99006.06;5072947;28;20458;-70
2021/05/12 07:14:33;;;;;;;7.97;6.43;;;;;;;22.95;59.43;99000.06;5074080;28;20033;-70
2021/05/12 07:16:58;;;;;;;10.10;6.40;;;;;;;23.07;59.67;98997.00;5074207;28;20027;-77
2021/05/12 07:19:24;;;;;;;9.35;6.38;;;;;;;23.23;59.10;99003.97;5073171;28;29690;-71
2021/05/12 07:21:49;;;;;;;8.23;6.55;;;;;;;23.39;58.62;99006.56;5093461;28;24701;-71
2021/05/12 07:24:15;;;;;;;8.77;6.78;;;;;;;23.58;58.63;98999.34;5092745;28;20037;-71
2021/05/12 07:26:40;;;;;;;9.13;6.47;;;;;;;23.73;58.19;99003.00;5093172;28;24271;-71
2021/05/12 07:29:06;;;;;;;13.05;6.30;;;;;;;23.90;58.13;99008.88;5092686;28;20362;-69
2021/05/12 07:31:31;;;;;;;8.30;6.60;;;;;;;24.15;58.59;99012.41;5093581;28;20086;-70
2021/05/12 07:33:57;;;;;;;8.85;6.53;;;;;;;24.37;57.33;99013.78;5097285;28;20389;-70
2021/05/12 07:36:23;;;;;;;12.48;6.85;;;;;;;24.61;57.36;99017.34;5113002;28;20024;-72
2021/05/12 07:38:48;;;;;;;8.35;5.85;;;;;;;24.67;56.12;99018.91;5112533;28;32893;-75
2021/05/12 07:41:13;;;;;;;9.18;6.45;;;;;;;24.92;56.89;99025.09;5096551;28;36733;-70
2021/05/12 07:43:39;;;;;;;12.88;6.53;;;;;;;25.29;57.22;99023.47;5097219;28;20503;-69
2021/05/12 07:46:04;;;;;;;9.32;6.05;;;;;;;25.51;55.83;99017.41;5096972;28;20040;-71
2021/05/12 07:48:30;;;;;;;8.80;6.60;;;;;;;25.73;55.53;99024.13;5097069;28;20032;-72
2021/05/12 07:50:55;;;;;;;13.00;10.77;;;;;;;25.99;55.61;99027.19;5097286;28;20032;-78
2021/05/12 07:53:20;;;;;;;8.25;6.45;;;;;;;26.11;54.02;99017.75;5097215;28;20035;-72
2021/05/12 07:55:46;;;;;;;7.68;6.03;;;;;;;26.25;54.39;99028.69;5112784;28;20025;-69
2021/05/12 07:58:11;;;;;;;9.60;5.97;;;;;;;26.40;52.67;99024.84;5096341;28;20028;-69
2021/05/12 08:00:39;;;;;;;8.30;6.18;;;;;;;26.35;52.12;99018.38;5112277;28;35319;-71
2021/05/12 08:03:05;;;;;;;7.10;5.75;;;;;;;26.44;52.67;99025.84;5095339;28;20048;-70
2021/05/12 08:05:32;;;;;;;11.27;5.80;;;;;;;26.61;52.33;99031.47;5096994;28;20987;-69
2021/05/12 08:07:57;;;;;;;6.80;5.90;;;;;;;26.77;52.07;99031.19;5096907;28;20047;-74
2021/05/12 08:10:23;;;;;;;9.90;5.97;;;;;;;27.00;51.88;99024.66;5095289;28;25866;-70
2021/05/12 08:12:48;;;;;;;10.32;5.93;;;;;;;27.36;52.15;99021.09;5111689;28;39612;-72
2021/05/12 08:15:14;;;;;;;8.82;6.28;;;;;;;27.81;51.47;99023.00;5096438;28;27409;-71
2021/05/12 08:17:39;;;;;;;11.82;5.90;;;;;;;28.00;50.68;99035.69;5096427;28;20070;-75
2021/05/12 08:20:05;;;;;;;8.77;5.93;;;;;;;28.24;50.21;99032.56;5094999;28;33424;-74
2021/05/12 08:22:31;;;;;;;7.47;6.25;;;;;;;28.63;49.97;99046.53;5112151;28;20020;-70
2021/05/12 08:24:56;;;;;;;9.00;6.03;;;;;;;29.08;49.74;99048.25;5095435;28;35836;-73
2021/05/12 08:27:21;;;;;;;8.88;5.72;;;;;;;29.66;49.38;99054.34;5094511;28;39166;-71
2021/05/12 08:29:47;;;;;;;8.30;6.25;;;;;;;29.99;48.08;99049.13;5095284;28;20074;-71
2021/05/12 08:32:15;;;;;;;10.02;6.35;;;;;;;29.98;45.74;99052.22;5097015;28;20024;-71
2021/05/12 08:34:40;;;;;;;7.80;5.72;;;;;;;29.88;46.03;99050.59;5096906;28;20033;-73
2021/05/12 08:37:06;;;;;;;10.90;7.03;;;;;;;30.04;45.94;99042.66;5095577;28;20389;-74
2021/05/12 08:39:33;;;;;;;7.38;6.65;;;;;;;30.09;43.87;99047.19;5096745;28;20823;-69
2021/05/12 08:41:58;;;;;;;7.22;6.53;;;;;;;30.00;43.94;99045.25;5095457;28;20451;-71
2021/05/12 08:44:23;;;;;;;10.73;6.07;;;;;;;29.97;43.14;99037.66;5093635;28;20036;-71
2021/05/12 08:46:49;;;;;;;9.68;6.50;;;;;;;29.95;42.86;99050.94;5077675;28;34329;-71
2021/05/12 08:49:18;;;;;;;12.07;7.25;;;;;;;29.90;42.97;99037.38;5076909;28;20047;-70
2021/05/12 08:51:44;;;;;;;7.78;7.05;;;;;;;29.93;42.68;99042.19;5094178;28;20503;-74
2021/05/12 08:54:10;;;;;;;8.50;6.22;;;;;;;30.07;42.83;99041.19;5084506;28;20107;-70
2021/05/12 08:56:35;;;;;;;10.40;6.95;;;;;;;30.14;41.58;99033.25;5085039;28;20035;-71
2021/05/12 08:59:02;;;;;;;12.95;6.82;;;;;;;30.07;41.14;99035.69;5086300;28;21004;-72
2021/05/12 09:01:27;;;;;;;8.10;5.38;;;;;;;30.14;42.02;99031.31;5086649;28;20473;-70
2021/05/12 09:03:53;;;;;;;10.98;6.53;;;;;;;30.18;41.01;99045.19;5094878;28;20024;-73
2021/05/12 09:06:18;;;;;;;16.23;6.50;;;;;;;30.11;40.62;99037.44;5077813;28;20535;-70
2021/05/12 09:08:47;;;;;;;10.15;6.35;;;;;;;30.24;41.12;99040.31;5086413;28;29124;-74
2021/05/12 09:11:12;;;;;;;11.52;5.75;;;;;;;30.45;41.38;99038.47;5084084;28;20021;-70
2021/05/12 09:13:38;;;;;;;7.70;5.63;;;;;;;30.68;40.97;99032.69;5082572;28;20025;-72
2021/05/12 09:16:34;;;;;;;10.02;6.45;;;;;;;31.15;40.78;99034.47;5091372;28;20025;-72
2021/05/12 09:19:03;;;;;;;9.95;6.10;;;;;;;31.29;39.53;99039.69;5081905;27;20045;-70
2021/05/12 09:21:47;;;;;;;9.90;6.13;;;;;;;30.95;36.63;99036.03;5075444;28;20055;-69
2021/05/12 09:24:19;;;;;;;9.55;6.22;;;;;;;30.68;39.28;99030.72;5075150;28;20053;-70
2021/05/12 09:26:46;;;;;;;7.13;6.22;;;;;;;30.59;38.30;99029.16;5075728;28;20033;-67
2021/05/12 09:29:11;;;;;;;13.25;6.15;;;;;;;30.58;39.05;99036.63;5057628;28;20585;-65
2021/05/12 09:31:37;;;;;;;7.72;6.00;;;;;;;30.81;39.15;99028.88;5075660;28;20033;-69
2021/05/12 09:34:06;;;;;;;8.32;5.72;;;;;;;31.18;39.76;99025.53;5075657;28;20075;-70
2021/05/12 09:36:31;;;;;;;7.88;5.40;;;;;;;31.62;38.70;99034.22;5075269;28;20807;-69
2021/05/12 09:38:57;;;;;;;8.20;5.85;;;;;;;31.75;37.87;99024.03;5074850;28;31264;-66
2021/05/12 09:41:32;;;;;;;13.20;5.93;;;;;;;31.63;37.30;99022.06;5073798;28;20033;-68
2021/05/12 09:43:59;;;;;;;11.60;6.07;;;;;;;31.76;36.93;99019.34;5073275;28;20021;-65
2021/05/12 09:46:26;;;;;;;9.95;6.53;;;;;;;31.69;36.47;99025.41;5072246;28;20033;-69
2021/05/12 09:49:00;;;;;;;15.55;6.72;;;;;;;31.46;36.46;99028.50;5072807;28;20033;-67
2021/05/12 09:51:27;;;;;;;8.68;6.28;;;;;;;31.09;35.90;99028.38;5072900;28;20033;-68
2021/05/12 09:54:19;;;;;;;10.00;6.40;;;;;;;31.04;36.77;99023.88;5073137;28;20025;-70
2021/05/12 09:56:49;;;;;;;10.27;6.97;;;;;;;31.12;36.46;99021.38;5072980;28;20136;-66
2021/05/12 09:59:23;;;;;;;9.18;6.00;;;;;;;30.94;35.62;99024.25;5074404;28;20041;-69
2021/05/12 10:01:56;;;;;;;9.38;6.63;;;;;;;31.26;37.33;99032.91;5074049;28;20031;-67
2021/05/12 10:04:21;;;;;;;6.40;5.78;;;;;;;31.56;36.34;99027.28;5075183;28;20025;-69
2021/05/12 10:06:47;;;;;;;7.68;6.53;;;;;;;31.69;36.04;99025.41;5075124;28;20033;-68
2021/05/12 10:09:22;;;;;;;9.60;6.38;;;;;;;32.01;36.84;99023.75;5073307;28;20064;-69
2021/05/12 10:12:04;;;;;;;8.02;6.10;;;;;;;32.28;35.95;99029.75;5074670;28;20037;-72
2021/05/12 10:14:30;;;;;;;10.98;6.35;;;;;;;32.29;35.69;99014.00;5074344;28;20036;-73
2021/05/12 10:16:56;;;;;;;10.60;6.30;;;;;;;32.34;35.43;99022.06;5074823;28;20033;-64
2021/05/12 10:19:21;;;;;;;7.18;6.00;;;;;;;32.32;35.39;99025.16;5073426;28;20029;-66
2021/05/12 10:21:47;;;;;;;11.95;6.50;;;;;;;32.34;34.69;99022.88;5073560;28;20033;-64
2021/05/12 10:24:13;;;;;;;7.10;6.38;;;;;;;32.27;34.82;99019.88;5074027;28;20404;-63
2021/05/12 10:26:42;;;;;;;7.07;6.38;;;;;;;32.28;34.64;99018.72;5074433;28;20044;-69
2021/05/12 10:29:08;;;;;;;;;;;;;;;32.48;35.23;99017.00;5073302;28;20490;-65
2021/05/12 10:31:33;;;;;;;8.27;6.03;;;;;;;32.74;34.92;99021.38;5073520;28;19923;-67
2021/05/12 10:34:01;;;;;;;8.43;6.88;;;;;;;32.72;33.82;99015.38;5072876;28;20024;-65
2021/05/12 10:36:26;;;;;;;8.43;5.55;;;;;;;32.39;33.36;99021.81;5074393;28;20084;-65
2021/05/12 10:38:52;;;;;;;10.73;6.25;;;;;;;32.32;33.84;99019.66;5073190;28;20032;-66
2021/05/12 10:41:47;;;;;;;8.68;5.93;;;;;;;32.16;33.73;99021.47;5074179;28;20507;-65
2021/05/12 10:47:00;;;;;;;9.15;5.90;;;;;;;32.09;33.69;99010.22;5073337;28;20036;-64
2021/05/12 10:49:26;;;;;;;8.55;6.95;;;;;;;32.19;33.88;99016.09;5074690;28;20200;-66
2021/05/12 10:51:51;;;;;;;10.45;6.63;;;;;;;32.31;34.24;99009.75;5056617;28;20112;-64
2021/05/12 10:54:40;;;;;;;6.63;6.03;;;;;;;32.37;34.03;99019.41;5073173;28;20065;-62
2021/05/12 10:57:06;;;;;;;8.25;6.65;;;;;;;32.45;33.66;99001.16;5073941;28;20040;-66
2021/05/12 10:59:32;;;;;;;8.30;6.10;;;;;;;32.52;33.84;99003.31;5048318;28;20033;-62
2021/05/12 11:01:57;;;;;;;10.65;6.30;;;;;;;32.69;33.92;99003.06;5087472;28;20024;-67
2021/05/12 11:04:24;;;;;;;14.48;7.32;;;;;;;32.67;32.60;98997.09;5073911;28;20036;-63
2021/05/12 11:06:53;;;;;;;11.13;6.68;;;;;;;32.45;32.82;98994.84;5074615;28;20021;-64
2021/05/12 11:09:19;;;;;;;12.80;6.50;;;;;;;32.37;33.42;98993.81;5077320;28;20108;-64
2021/05/12 11:11:44;;;;;;;8.75;6.82;;;;;;;32.28;32.79;99001.41;5077702;28;20029;-64
2021/05/12 11:14:32;;;;;;;7.65;5.88;;;;;;;32.14;33.27;98993.47;5077938;28;20357;-62
2021/05/12 11:17:10;;;;;;;7.93;5.75;;;;;;;32.26;33.24;98987.97;5077697;28;20931;-71
2021/05/12 11:19:38;;;;;;;9.02;6.03;;;;;;;32.37;33.37;98980.03;5077661;28;20037;-68
2021/05/12 11:33:21;;;;;;;7.15;6.28;;;;;;;32.69;32.85;98978.25;5075373;28;20087;-72
2021/05/12 11:35:49;;;;;;;12.30;7.25;;;;;;;32.67;32.45;98969.53;5075976;28;20676;-68
2021/05/12 11:38:17;;;;;;;12.50;6.88;;;;;;;32.60;32.83;98969.31;5076997;28;20612;-68
2021/05/12 11:41:01;;;;;;;7.30;6.50;;;;;;;32.43;32.76;98966.84;5077084;28;20187;-69